sensor_id;sensor_type;location;lat;lon;timestamp;temperature;humidity
1083;DHT22;530;51.448;7.238;2023-04-01T00:01:38;10.60;99.90
1083;DHT22;530;51.448;7.238;2023-04-01T00:04:04;10.60;99.90
1083;DHT22;530;51.448;7.238;2023-04-01T00:06:30;10.60;99.90
1083;DHT22;530;51.448;7.238;2023-04-01T00:08:56;10.60;99.90
1083;DHT22;530;51.448;7.238;2023-04-01T00:11:22;10.60;99.90
1083;DHT22;530;51.448;7.238;2023-04-01T00:13:48;10.50;99.90
1083;DHT22;530;51.448;7.238;2023-04-01T00:16:14;10.60;99.90
1083;DHT22;530;51.448;7.238;2023-04-01T00:18:40;10.60;99.90
1083;DHT22;530;51.448;7.238;2023-04-01T00:21:06;10.60;99.90
1083;DHT22;530;51.448;7.238;2023-04-01T00:23:32;10.60;99.90
1083;DHT22;530;51.448;7.238;2023-04-01T00:26:02;10.70;99.90
1083;DHT22;530;51.448;7.238;2023-04-01T00:28:28;10.60;99.90
1083;DHT22;530;51.448;7.238;2023-04-01T00:30:54;10.50;99.90
1083;DHT22;530;51.448;7.238;2023-04-01T00:33:20;10.50;99.90
1083;DHT22;530;51.448;7.238;2023-04-01T00:35:46;10.60;99.90
1083;DHT22;530;51.448;7.238;2023-04-01T00:38:12;10.60;99.90
1083;DHT22;530;51.448;7.238;2023-04-01T00:40:44;10.60;99.90
1083;DHT22;530;51.448;7.238;2023-04-01T00:43:13;10.60;99.90
1083;DHT22;530;51.448;7.238;2023-04-01T00:45:41;10.70;99.90
1083;DHT22;530;51.448;7.238;2023-04-01T00:48:11;10.60;99.90
1083;DHT22;530;51.448;7.238;2023-04-01T00:50:40;10.60;99.90
1083;DHT22;530;51.448;7.238;2023-04-01T00:53:08;10.60;99.90
1083;DHT22;530;51.448;7.238;2023-04-01T00:55:36;10.60;99.90
1083;DHT22;530;51.448;7.238;2023-04-01T00:58:05;10.60;99.90
1083;DHT22;530;51.448;7.238;2023-04-01T01:00:33;10.50;99.90
1083;DHT22;530;51.448;7.238;2023-04-01T01:03:00;10.60;99.90
1083;DHT22;530;51.448;7.238;2023-04-01T01:10:57;10.50;99.90
1083;DHT22;530;51.448;7.238;2023-04-01T01:13:30;10.50;99.90
1083;DHT22;530;51.448;7.238;2023-04-01T01:16:29;10.60;99.90
1083;DHT22;530;51.448;7.238;2023-04-01T01:19:09;10.50;99.90
1083;DHT22;530;51.448;7.238;2023-04-01T01:24:40;10.50;99.90
1083;DHT22;530;51.448;7.238;2023-04-01T01:27:11;10.50;99.90
1083;DHT22;530;51.448;7.238;2023-04-01T01:32:39;10.40;99.90
1083;DHT22;530;51.448;7.238;2023-04-01T01:38:04;10.50;99.90
1083;DHT22;530;51.448;7.238;2023-04-01T01:40:32;10.50;99.90
1083;DHT22;530;51.448;7.238;2023-04-01T01:43:06;10.50;99.90
1083;DHT22;530;51.448;7.238;2023-04-01T01:45:36;10.50;99.90
1083;DHT22;530;51.448;7.238;2023-04-01T01:48:07;10.50;99.90
1083;DHT22;530;51.448;7.238;2023-04-01T01:50:35;10.50;99.90
1083;DHT22;530;51.448;7.238;2023-04-01T01:53:07;10.50;99.90
1083;DHT22;530;51.448;7.238;2023-04-01T01:55:39;10.50;99.90
1083;DHT22;530;51.448;7.238;2023-04-01T01:58:35;10.50;99.90
1083;DHT22;530;51.448;7.238;2023-04-01T02:01:07;10.50;99.90
1083;DHT22;530;51.448;7.238;2023-04-01T02:03:36;10.50;99.90
1083;DHT22;530;51.448;7.238;2023-04-01T02:06:07;10.50;99.90
1083;DHT22;530;51.448;7.238;2023-04-01T02:08:39;10.60;99.90
1083;DHT22;530;51.448;7.238;2023-04-01T02:11:09;10.50;99.90
1083;DHT22;530;51.448;7.238;2023-04-01T02:13:47;10.50;99.90
1083;DHT22;530;51.448;7.238;2023-04-01T02:16:22;10.40;99.90
1083;DHT22;530;51.448;7.238;2023-04-01T02:18:50;10.40;99.90
1083;DHT22;530;51.448;7.238;2023-04-01T02:21:17;10.50;99.90
1083;DHT22;530;51.448;7.238;2023-04-01T02:23:45;10.40;99.90
1083;DHT22;530;51.448;7.238;2023-04-01T02:26:13;10.40;99.90
1083;DHT22;530;51.448;7.238;2023-04-01T02:28:40;10.50;99.90
1083;DHT22;530;51.448;7.238;2023-04-01T02:31:10;10.50;99.90
1083;DHT22;530;51.448;7.238;2023-04-01T02:33:37;10.50;99.90
1083;DHT22;530;51.448;7.238;2023-04-01T02:36:04;10.50;99.90
1083;DHT22;530;51.448;7.238;2023-04-01T02:38:30;10.50;99.90
1083;DHT22;530;51.448;7.238;2023-04-01T02:41:00;10.50;99.90
1083;DHT22;530;51.448;7.238;2023-04-01T02:43:27;10.50;99.90
1083;DHT22;530;51.448;7.238;2023-04-01T02:45:53;10.50;99.90
1083;DHT22;530;51.448;7.238;2023-04-01T02:48:19;10.50;99.90
1083;DHT22;530;51.448;7.238;2023-04-01T02:50:45;10.40;99.90
1083;DHT22;530;51.448;7.238;2023-04-01T02:53:11;10.40;99.90
1083;DHT22;530;51.448;7.238;2023-04-01T02:55:37;10.40;99.90
1083;DHT22;530;51.448;7.238;2023-04-01T02:58:02;10.40;99.90
1083;DHT22;530;51.448;7.238;2023-04-01T03:00:28;10.40;99.90
1083;DHT22;530;51.448;7.238;2023-04-01T03:02:54;10.40;99.90
1083;DHT22;530;51.448;7.238;2023-04-01T03:05:20;10.30;99.90
1083;DHT22;530;51.448;7.238;2023-04-01T03:07:46;10.30;99.90
1083;DHT22;530;51.448;7.238;2023-04-01T03:10:12;10.40;99.90
1083;DHT22;530;51.448;7.238;2023-04-01T03:12:38;10.40;99.90
1083;DHT22;530;51.448;7.238;2023-04-01T03:15:04;10.40;99.90
1083;DHT22;530;51.448;7.238;2023-04-01T03:17:30;10.40;99.90
1083;DHT22;530;51.448;7.238;2023-04-01T03:19:56;10.30;99.90
1083;DHT22;530;51.448;7.238;2023-04-01T03:22:21;10.40;99.90
1083;DHT22;530;51.448;7.238;2023-04-01T03:24:48;10.30;99.90
1083;DHT22;530;51.448;7.238;2023-04-01T03:27:14;10.30;99.90
1083;DHT22;530;51.448;7.238;2023-04-01T03:29:40;10.40;99.90
1083;DHT22;530;51.448;7.238;2023-04-01T03:32:06;10.30;99.90
1083;DHT22;530;51.448;7.238;2023-04-01T03:34:32;10.40;99.90
1083;DHT22;530;51.448;7.238;2023-04-01T03:36:57;10.40;99.90
1083;DHT22;530;51.448;7.238;2023-04-01T03:39:23;10.40;99.90
1083;DHT22;530;51.448;7.238;2023-04-01T03:41:49;10.40;99.90
1083;DHT22;530;51.448;7.238;2023-04-01T03:44:15;10.40;99.90
1083;DHT22;530;51.448;7.238;2023-04-01T03:46:40;10.40;99.90
1083;DHT22;530;51.448;7.238;2023-04-01T03:49:07;10.40;99.90
1083;DHT22;530;51.448;7.238;2023-04-01T03:51:41;10.30;99.90
1083;DHT22;530;51.448;7.238;2023-04-01T03:54:07;10.30;99.90
1083;DHT22;530;51.448;7.238;2023-04-01T03:56:33;10.30;99.90
1083;DHT22;530;51.448;7.238;2023-04-01T03:59:02;10.30;99.90
1083;DHT22;530;51.448;7.238;2023-04-01T04:01:29;10.30;99.90
1083;DHT22;530;51.448;7.238;2023-04-01T04:03:55;10.30;99.90
1083;DHT22;530;51.448;7.238;2023-04-01T04:06:21;10.30;99.90
1083;DHT22;530;51.448;7.238;2023-04-01T04:08:47;10.30;99.90
1083;DHT22;530;51.448;7.238;2023-04-01T04:11:13;10.30;99.90
1083;DHT22;530;51.448;7.238;2023-04-01T04:13:39;10.30;99.90
1083;DHT22;530;51.448;7.238;2023-04-01T04:16:05;10.30;99.90
1083;DHT22;530;51.448;7.238;2023-04-01T04:18:31;10.30;99.90
1083;DHT22;530;51.448;7.238;2023-04-01T04:20:57;10.20;99.90
1083;DHT22;530;51.448;7.238;2023-04-01T04:23:22;10.30;99.90
1083;DHT22;530;51.448;7.238;2023-04-01T04:25:59;10.30;99.90
1083;DHT22;530;51.448;7.238;2023-04-01T04:28:26;10.20;99.90
1083;DHT22;530;51.448;7.238;2023-04-01T04:30:53;10.20;99.90
1083;DHT22;530;51.448;7.238;2023-04-01T04:33:19;10.30;99.90
1083;DHT22;530;51.448;7.238;2023-04-01T04:35:45;10.30;99.90
1083;DHT22;530;51.448;7.238;2023-04-01T04:38:11;10.30;99.90
1083;DHT22;530;51.448;7.238;2023-04-01T04:40:37;10.30;99.90
1083;DHT22;530;51.448;7.238;2023-04-01T04:43:03;10.30;99.90
1083;DHT22;530;51.448;7.238;2023-04-01T04:45:29;10.40;99.90
1083;DHT22;530;51.448;7.238;2023-04-01T04:47:55;10.40;99.90
1083;DHT22;530;51.448;7.238;2023-04-01T04:50:21;10.30;99.90
1083;DHT22;530;51.448;7.238;2023-04-01T04:52:47;10.30;99.90
1083;DHT22;530;51.448;7.238;2023-04-01T04:55:13;10.30;99.90
1083;DHT22;530;51.448;7.238;2023-04-01T04:57:40;10.30;99.90
1083;DHT22;530;51.448;7.238;2023-04-01T05:00:07;10.30;99.90
1083;DHT22;530;51.448;7.238;2023-04-01T05:02:33;10.30;99.90
1083;DHT22;530;51.448;7.238;2023-04-01T05:04:59;10.30;99.90
1083;DHT22;530;51.448;7.238;2023-04-01T05:07:25;10.30;99.90
1083;DHT22;530;51.448;7.238;2023-04-01T05:09:51;10.40;99.90
1083;DHT22;530;51.448;7.238;2023-04-01T05:12:17;10.40;99.90
1083;DHT22;530;51.448;7.238;2023-04-01T05:14:42;10.40;99.90
1083;DHT22;530;51.448;7.238;2023-04-01T05:17:12;10.40;99.90
1083;DHT22;530;51.448;7.238;2023-04-01T05:19:38;10.40;99.90
1083;DHT22;530;51.448;7.238;2023-04-01T05:22:05;10.40;99.90
1083;DHT22;530;51.448;7.238;2023-04-01T05:24:31;10.40;99.90
1083;DHT22;530;51.448;7.238;2023-04-01T05:26:58;10.40;99.90
1083;DHT22;530;51.448;7.238;2023-04-01T05:29:24;10.30;99.90
1083;DHT22;530;51.448;7.238;2023-04-01T05:31:50;10.30;99.90
1083;DHT22;530;51.448;7.238;2023-04-01T05:34:16;10.30;99.90
1083;DHT22;530;51.448;7.238;2023-04-01T05:36:42;10.40;99.90
1083;DHT22;530;51.448;7.238;2023-04-01T05:39:08;10.40;99.90
1083;DHT22;530;51.448;7.238;2023-04-01T05:41:38;10.40;99.90
1083;DHT22;530;51.448;7.238;2023-04-01T05:44:04;10.40;99.90
1083;DHT22;530;51.448;7.238;2023-04-01T05:46:31;10.40;99.90
1083;DHT22;530;51.448;7.238;2023-04-01T05:48:57;10.40;99.90
1083;DHT22;530;51.448;7.238;2023-04-01T05:51:23;10.40;99.90
1083;DHT22;530;51.448;7.238;2023-04-01T05:53:49;10.40;99.90
1083;DHT22;530;51.448;7.238;2023-04-01T05:56:15;10.40;99.90
1083;DHT22;530;51.448;7.238;2023-04-01T05:58:40;10.40;99.90
1083;DHT22;530;51.448;7.238;2023-04-01T06:01:08;10.40;99.90
1083;DHT22;530;51.448;7.238;2023-04-01T06:03:35;10.40;99.90
1083;DHT22;530;51.448;7.238;2023-04-01T06:06:01;10.40;99.90
1083;DHT22;530;51.448;7.238;2023-04-01T06:08:28;10.40;99.90
1083;DHT22;530;51.448;7.238;2023-04-01T06:16:48;10.40;99.90
1083;DHT22;530;51.448;7.238;2023-04-01T06:19:22;10.40;99.90
1083;DHT22;530;51.448;7.238;2023-04-01T06:27:13;10.50;99.90
1083;DHT22;530;51.448;7.238;2023-04-01T06:36:03;10.60;99.90
1083;DHT22;530;51.448;7.238;2023-04-01T06:43:45;10.50;99.90
1083;DHT22;530;51.448;7.238;2023-04-01T06:46:20;10.50;99.90
1083;DHT22;530;51.448;7.238;2023-04-01T06:55:41;10.40;99.90
1083;DHT22;530;51.448;7.238;2023-04-01T06:58:09;10.40;99.90
1083;DHT22;530;51.448;7.238;2023-04-01T07:00:39;10.40;99.90
1083;DHT22;530;51.448;7.238;2023-04-01T07:06:05;10.50;99.90
1083;DHT22;530;51.448;7.238;2023-04-01T07:08:36;10.40;99.90
1083;DHT22;530;51.448;7.238;2023-04-01T07:11:05;10.40;99.90
1083;DHT22;530;51.448;7.238;2023-04-01T07:13:36;10.50;99.90
1083;DHT22;530;51.448;7.238;2023-04-01T07:16:19;10.50;99.90
1083;DHT22;530;51.448;7.238;2023-04-01T07:18:52;10.50;99.90
1083;DHT22;530;51.448;7.238;2023-04-01T07:21:28;10.50;99.90
1083;DHT22;530;51.448;7.238;2023-04-01T07:23:58;10.50;99.90
1083;DHT22;530;51.448;7.238;2023-04-01T07:26:26;10.60;99.90
1083;DHT22;530;51.448;7.238;2023-04-01T07:28:53;10.50;99.90
1083;DHT22;530;51.448;7.238;2023-04-01T07:34:11;10.60;99.90
1083;DHT22;530;51.448;7.238;2023-04-01T07:36:48;10.60;99.90
1083;DHT22;530;51.448;7.238;2023-04-01T07:53:38;10.60;99.90
1083;DHT22;530;51.448;7.238;2023-04-01T07:56:31;10.50;99.90
1083;DHT22;530;51.448;7.238;2023-04-01T08:04:25;10.60;99.90
1083;DHT22;530;51.448;7.238;2023-04-01T08:09:29;10.60;99.90
1083;DHT22;530;51.448;7.238;2023-04-01T08:12:03;10.60;99.90
1083;DHT22;530;51.448;7.238;2023-04-01T08:23:24;10.60;99.90
1083;DHT22;530;51.448;7.238;2023-04-01T08:28:51;10.60;99.90
1083;DHT22;530;51.448;7.238;2023-04-01T08:31:39;10.50;99.90
1083;DHT22;530;51.448;7.238;2023-04-01T08:34:24;10.50;99.90
1083;DHT22;530;51.448;7.238;2023-04-01T08:37:00;10.60;99.90
1083;DHT22;530;51.448;7.238;2023-04-01T08:39:29;10.50;99.90
1083;DHT22;530;51.448;7.238;2023-04-01T08:56:18;10.60;99.90
1083;DHT22;530;51.448;7.238;2023-04-01T09:07:33;10.60;99.90
1083;DHT22;530;51.448;7.238;2023-04-01T09:27:29;10.60;99.90
1083;DHT22;530;51.448;7.238;2023-04-01T09:35:50;10.60;99.90
1083;DHT22;530;51.448;7.238;2023-04-01T09:41:31;10.60;99.90
1083;DHT22;530;51.448;7.238;2023-04-01T09:44:06;10.60;99.90
1083;DHT22;530;51.448;7.238;2023-04-01T09:54:56;10.70;99.90
1083;DHT22;530;51.448;7.238;2023-04-01T10:03:53;10.70;99.90
1083;DHT22;530;51.448;7.238;2023-04-01T10:17:31;10.90;99.90
1083;DHT22;530;51.448;7.238;2023-04-01T10:22:40;10.90;99.90
1083;DHT22;530;51.448;7.238;2023-04-01T10:25:43;10.90;99.90
1083;DHT22;530;51.448;7.238;2023-04-01T10:36:57;10.90;99.90
1083;DHT22;530;51.448;7.238;2023-04-01T10:39:34;10.90;99.90
1083;DHT22;530;51.448;7.238;2023-04-01T10:58:15;11.00;99.90
1083;DHT22;530;51.448;7.238;2023-04-01T11:32:02;11.00;99.90
1083;DHT22;530;51.448;7.238;2023-04-01T11:42:59;11.00;99.90
1083;DHT22;530;51.448;7.238;2023-04-01T11:45:59;11.10;99.90
1083;DHT22;530;51.448;7.238;2023-04-01T11:51:38;11.00;99.90
1083;DHT22;530;51.448;7.238;2023-04-01T11:56:58;11.10;99.90
1083;DHT22;530;51.448;7.238;2023-04-01T12:00:32;11.10;99.90
1083;DHT22;530;51.448;7.238;2023-04-01T12:06:08;11.10;99.90
1083;DHT22;530;51.448;7.238;2023-04-01T12:14:17;11.10;99.90
1083;DHT22;530;51.448;7.238;2023-04-01T12:17:14;11.10;99.90
1083;DHT22;530;51.448;7.238;2023-04-01T12:31:18;11.20;99.90
1083;DHT22;530;51.448;7.238;2023-04-01T12:34:00;11.20;99.90
1083;DHT22;530;51.448;7.238;2023-04-01T12:50:48;11.30;99.90
1083;DHT22;530;51.448;7.238;2023-04-01T13:01:57;11.30;99.90
1083;DHT22;530;51.448;7.238;2023-04-01T13:04:51;11.30;99.90
1083;DHT22;530;51.448;7.238;2023-04-01T13:10:44;11.30;99.90
1083;DHT22;530;51.448;7.238;2023-04-01T13:16:26;11.40;99.90
1083;DHT22;530;51.448;7.238;2023-04-01T13:19:01;11.30;99.90
1083;DHT22;530;51.448;7.238;2023-04-01T13:21:56;11.40;99.90
1083;DHT22;530;51.448;7.238;2023-04-01T13:35:25;11.30;99.90
1083;DHT22;530;51.448;7.238;2023-04-01T13:43:58;11.30;99.90
1083;DHT22;530;51.448;7.238;2023-04-01T13:58:13;11.30;99.90
1083;DHT22;530;51.448;7.238;2023-04-01T14:17:31;11.20;99.90
1083;DHT22;530;51.448;7.238;2023-04-01T14:41:47;11.20;99.90
1083;DHT22;530;51.448;7.238;2023-04-01T14:51:42;11.20;99.90
1083;DHT22;530;51.448;7.238;2023-04-01T14:57:01;11.20;99.90
1083;DHT22;530;51.448;7.238;2023-04-01T14:59:29;11.20;99.90
1083;DHT22;530;51.448;7.238;2023-04-01T15:02:18;11.20;99.90
1083;DHT22;530;51.448;7.238;2023-04-01T15:04:58;11.20;99.90
1083;DHT22;530;51.448;7.238;2023-04-01T15:21:58;11.10;99.90
1083;DHT22;530;51.448;7.238;2023-04-01T15:27:44;11.10;99.90
1083;DHT22;530;51.448;7.238;2023-04-01T15:38:33;11.10;99.90
1083;DHT22;530;51.448;7.238;2023-04-01T15:41:11;11.20;99.90
1083;DHT22;530;51.448;7.238;2023-04-01T15:57:47;11.20;99.90
1083;DHT22;530;51.448;7.238;2023-04-01T16:00:31;11.20;99.90
1083;DHT22;530;51.448;7.238;2023-04-01T16:03:33;11.20;99.90
1083;DHT22;530;51.448;7.238;2023-04-01T16:09:05;11.20;99.90
1083;DHT22;530;51.448;7.238;2023-04-01T16:22:19;11.20;99.90
1083;DHT22;530;51.448;7.238;2023-04-01T16:30:48;11.10;99.90
1083;DHT22;530;51.448;7.238;2023-04-01T16:35:53;11.20;99.90
1083;DHT22;530;51.448;7.238;2023-04-01T16:38:33;11.20;99.90
1083;DHT22;530;51.448;7.238;2023-04-01T16:43:42;11.20;99.90
1083;DHT22;530;51.448;7.238;2023-04-01T16:46:49;11.20;99.90
1083;DHT22;530;51.448;7.238;2023-04-01T16:49:24;11.20;99.90
1083;DHT22;530;51.448;7.238;2023-04-01T17:02:20;11.10;99.90
1083;DHT22;530;51.448;7.238;2023-04-01T17:05:03;11.00;99.90
1083;DHT22;530;51.448;7.238;2023-04-01T17:15:51;11.10;99.90
1083;DHT22;530;51.448;7.238;2023-04-01T17:37:45;11.10;99.90
1083;DHT22;530;51.448;7.238;2023-04-01T17:40:04;11.00;99.90
1083;DHT22;530;51.448;7.238;2023-04-01T17:42:43;11.10;99.90
1083;DHT22;530;51.448;7.238;2023-04-01T17:48:15;11.00;99.90
1083;DHT22;530;51.448;7.238;2023-04-01T17:50:54;11.00;99.90
1083;DHT22;530;51.448;7.238;2023-04-01T17:53:47;11.00;99.90
1083;DHT22;530;51.448;7.238;2023-04-01T18:21:48;11.00;99.90
1083;DHT22;530;51.448;7.238;2023-04-01T18:24:45;11.00;99.90
1083;DHT22;530;51.448;7.238;2023-04-01T18:27:16;10.90;99.90
1083;DHT22;530;51.448;7.238;2023-04-01T18:29:51;11.00;99.90
1083;DHT22;530;51.448;7.238;2023-04-01T18:32:37;11.00;99.90
1083;DHT22;530;51.448;7.238;2023-04-01T18:37:52;11.00;99.90
1083;DHT22;530;51.448;7.238;2023-04-01T18:40:32;11.00;99.90
1083;DHT22;530;51.448;7.238;2023-04-01T18:43:05;11.00;99.90
1083;DHT22;530;51.448;7.238;2023-04-01T18:45:51;10.90;99.90
1083;DHT22;530;51.448;7.238;2023-04-01T18:49:12;10.90;99.90
1083;DHT22;530;51.448;7.238;2023-04-01T18:51:49;10.90;99.90
1083;DHT22;530;51.448;7.238;2023-04-01T18:54:30;11.00;99.90
1083;DHT22;530;51.448;7.238;2023-04-01T18:57:15;11.00;99.90
1083;DHT22;530;51.448;7.238;2023-04-01T19:02:31;10.90;99.90
1083;DHT22;530;51.448;7.238;2023-04-01T19:05:17;10.90;99.90
1083;DHT22;530;51.448;7.238;2023-04-01T19:07:47;10.90;99.90
1083;DHT22;530;51.448;7.238;2023-04-01T19:16:21;11.00;99.90
1083;DHT22;530;51.448;7.238;2023-04-01T19:21:56;11.00;99.90
1083;DHT22;530;51.448;7.238;2023-04-01T19:27:13;10.90;99.90
1083;DHT22;530;51.448;7.238;2023-04-01T19:35:44;10.80;99.90
1083;DHT22;530;51.448;7.238;2023-04-01T19:38:38;10.80;99.90
1083;DHT22;530;51.448;7.238;2023-04-01T19:41:16;10.80;99.90
1083;DHT22;530;51.448;7.238;2023-04-01T19:46:53;10.80;99.90
1083;DHT22;530;51.448;7.238;2023-04-01T19:54:58;10.70;99.90
1083;DHT22;530;51.448;7.238;2023-04-01T20:00:15;10.60;99.90
1083;DHT22;530;51.448;7.238;2023-04-01T20:06:00;10.60;99.90
1083;DHT22;530;51.448;7.238;2023-04-01T20:16:53;10.50;99.90
1083;DHT22;530;51.448;7.238;2023-04-01T20:36:31;10.40;99.90
1083;DHT22;530;51.448;7.238;2023-04-01T20:51:14;10.20;99.90
1083;DHT22;530;51.448;7.238;2023-04-01T21:02:42;10.10;99.90
1083;DHT22;530;51.448;7.238;2023-04-01T21:08:26;10.00;99.90
1083;DHT22;530;51.448;7.238;2023-04-01T21:10:59;10.00;99.90
1083;DHT22;530;51.448;7.238;2023-04-01T21:50:06;9.70;99.90
1083;DHT22;530;51.448;7.238;2023-04-01T21:55:47;9.60;99.90
1083;DHT22;530;51.448;7.238;2023-04-01T22:09:29;9.40;99.90
1083;DHT22;530;51.448;7.238;2023-04-01T22:12:42;9.40;99.90
1083;DHT22;530;51.448;7.238;2023-04-01T22:15:15;9.30;99.90
1083;DHT22;530;51.448;7.238;2023-04-01T22:17:53;9.30;99.90
1083;DHT22;530;51.448;7.238;2023-04-01T22:20:25;9.10;99.90
1083;DHT22;530;51.448;7.238;2023-04-01T22:28:52;9.20;99.90
1083;DHT22;530;51.448;7.238;2023-04-01T22:31:28;9.20;99.90
1083;DHT22;530;51.448;7.238;2023-04-01T22:34:00;9.30;99.90
1083;DHT22;530;51.448;7.238;2023-04-01T22:37:12;9.10;99.90
1083;DHT22;530;51.448;7.238;2023-04-01T22:51:18;9.00;99.90
1083;DHT22;530;51.448;7.238;2023-04-01T22:56:26;8.70;99.90
1083;DHT22;530;51.448;7.238;2023-04-01T23:04:39;8.80;99.90
1083;DHT22;530;51.448;7.238;2023-04-01T23:09:58;8.70;99.90
1083;DHT22;530;51.448;7.238;2023-04-01T23:12:27;8.40;99.90
1083;DHT22;530;51.448;7.238;2023-04-01T23:15:01;8.70;99.90
1083;DHT22;530;51.448;7.238;2023-04-01T23:20:23;8.70;99.90
1083;DHT22;530;51.448;7.238;2023-04-01T23:25:40;8.50;99.90
1083;DHT22;530;51.448;7.238;2023-04-01T23:35:58;8.50;99.90
1083;DHT22;530;51.448;7.238;2023-04-01T23:38:34;8.50;99.90
1083;DHT22;530;51.448;7.238;2023-04-01T23:41:01;8.40;99.90
1083;DHT22;530;51.448;7.238;2023-04-01T23:43:37;8.70;99.90
1083;DHT22;530;51.448;7.238;2023-04-01T23:46:04;8.50;99.90
1083;DHT22;530;51.448;7.238;2023-04-01T23:48:38;8.60;99.90
1083;DHT22;530;51.448;7.238;2023-04-01T23:51:14;8.50;99.90
1083;DHT22;530;51.448;7.238;2023-04-01T23:53:45;8.50;99.90
1083;DHT22;530;51.448;7.238;2023-04-01T23:56:11;8.50;99.90
1083;DHT22;530;51.448;7.238;2023-04-01T23:58:49;8.50;99.90
